Nuevo Albor Uno — EA8337 — position and weather

sailwx.info

Track history (hours):
 
Tides and Currents Weather Stations Pressure Air Temp Water Temp Dewpoint Dewpoint Depression Visibility Wind Speed Wind Dir Waves Ship Positions

Nuevo Albor Uno

Last reported at 2018-Jun-22 05:19 UTC. Time now 2018-Jun-22 05:48 UTC.
Position N 37°53' W 000°19'.

Length 23 m.

Type: Fishing. MMSI: 224162840.

Date/timePositionNaut miles runAvg speedWind from/ knotsBaromVisibWave heightAir tempDewpointWater temp
2018-Jun-22 05:19N 37°53' W 000°19'3 7.1
2018-Jun-22 04:50N 37°56' W 000°21'18 1.4
2018-Jun-21 15:42N 38°11' W 000°34'1 3.5
2018-Jun-21 15:30N 38°11' W 000°33'510.0
2018-Jun-21 15:01N 38°07' W 000°29'5 9.9
2018-Jun-21 14:30N 38°04' W 000°24'5 9.9
2018-Jun-21 14:00N 38°00' W 000°20'510.1
2018-Jun-21 13:31N 37°57' W 000°15'13 0.6
2018-Jun-20 14:19N 38°04' W 000°29'11 1.2
2018-Jun-20 04:54N 37°54' W 000°21'2 5.3
2018-Jun-20 04:30N 37°56' W 000°22'5 9.7
2018-Jun-20 03:59N 38°01' W 000°25'6 0.4
2018-Jun-19 12:39N 37°59' W 000°17'2 0.3
2018-Jun-19 04:45N 37°57' W 000°19'8 0.5
2018-Jun-18 14:09N 38°04' W 000°23'1 9.9
2018-Jun-18 14:00N 38°03' W 000°22'5 9.2
2018-Jun-18 13:29N 37°60' W 000°17'0 0.6
2018-Jun-18 13:00N 37°60' W 000°17'1 2.7
2018-Jun-18 12:30N 37°59' W 000°17'1 2.7
2018-Jun-18 12:00N 37°57' W 000°17'2 2.8
2018-Jun-18 11:24N 37°56' W 000°17'1 2.8
2018-Jun-18 10:56N 37°54' W 000°17'1 2.7
2018-Jun-18 10:29N 37°53' W 000°16'5 0.9
2018-Jun-18 04:52N 37°58' W 000°18'2 6.4
2018-Jun-18 04:29N 38°00' W 000°19'  
2018-Jun-15 14:48N 38°09' W 000°31'310.4
2018-Jun-15 14:30N 38°08' W 000°28'510.2
2018-Jun-15 14:00N 38°05' W 000°23'610.2
2018-Jun-15 13:27N 38°01' W 000°17'1 2.3
2018-Jun-15 12:59N 38°01' W 000°16'5 0.6
2018-Jun-15 05:25N 37°57' W 000°19'1 3.1
2018-Jun-15 04:59N 37°59' W 000°19'5 5.0
2018-Jun-15 04:02N 38°03' W 000°21'110.2
2018-Jun-15 03:55N 38°04' W 000°23'6 0.4
2018-Jun-14 13:17N 37°59' W 000°17'1 1.3
2018-Jun-14 12:52N 37°60' W 000°17'1 2.5
2018-Jun-14 12:27N 37°59' W 000°17'1 2.6
2018-Jun-14 11:59N 37°57' W 000°17'6 2.6
2018-Jun-14 09:51N 37°52' W 000°17'1 2.7
2018-Jun-14 09:20N 37°51' W 000°17'1 2.6
2018-Jun-14 08:52N 37°50' W 000°19'6 3.2
2018-Jun-14 07:04N 37°56' W 000°20'0 3.1
2018-Jun-14 07:00N 37°56' W 000°19'2 3.1
2018-Jun-14 06:25N 37°58' W 000°19'1 3.1
2018-Jun-14 06:00N 37°59' W 000°19'10 0.3
2018-Jun-12 14:25N 38°08' W 000°25'11 9.2
2018-Jun-12 13:14N 38°03' W 000°12'  
Track history (hours):
 
Tides and Currents Weather Stations Pressure Air Temp Water Temp Dewpoint Dewpoint Depression Visibility Wind Speed Wind Dir Waves Ship Positions

Nuevo Albor Uno

Last reported at 2018-Jun-22 05:19 UTC. Time now 2018-Jun-22 05:48 UTC.
Position N 37°53' W 000°19'.

Length 23 m.

Type: Fishing. MMSI: 224162840.

Date/timePositionNaut miles runAvg speedWind from/ knotsBaromVisibWave heightAir tempDewpointWater temp
2018-Jun-22 05:19N 37°53' W 000°19'3 7.1
2018-Jun-22 04:50N 37°56' W 000°21'18 1.4
2018-Jun-21 15:42N 38°11' W 000°34'1 3.5
2018-Jun-21 15:30N 38°11' W 000°33'510.0
2018-Jun-21 15:01N 38°07' W 000°29'5 9.9
2018-Jun-21 14:30N 38°04' W 000°24'5 9.9
2018-Jun-21 14:00N 38°00' W 000°20'510.1
2018-Jun-21 13:31N 37°57' W 000°15'13 0.6
2018-Jun-20 14:19N 38°04' W 000°29'11 1.2
2018-Jun-20 04:54N 37°54' W 000°21'2 5.3
2018-Jun-20 04:30N 37°56' W 000°22'5 9.7
2018-Jun-20 03:59N 38°01' W 000°25'6 0.4
2018-Jun-19 12:39N 37°59' W 000°17'2 0.3
2018-Jun-19 04:45N 37°57' W 000°19'8 0.5
2018-Jun-18 14:09N 38°04' W 000°23'1 9.9
2018-Jun-18 14:00N 38°03' W 000°22'5 9.2
2018-Jun-18 13:29N 37°60' W 000°17'0 0.6
2018-Jun-18 13:00N 37°60' W 000°17'1 2.7
2018-Jun-18 12:30N 37°59' W 000°17'1 2.7
2018-Jun-18 12:00N 37°57' W 000°17'2 2.8
2018-Jun-18 11:24N 37°56' W 000°17'1 2.8
2018-Jun-18 10:56N 37°54' W 000°17'1 2.7
2018-Jun-18 10:29N 37°53' W 000°16'5 0.9
2018-Jun-18 04:52N 37°58' W 000°18'2 6.4
2018-Jun-18 04:29N 38°00' W 000°19'  
2018-Jun-15 14:48N 38°09' W 000°31'310.4
2018-Jun-15 14:30N 38°08' W 000°28'510.2
2018-Jun-15 14:00N 38°05' W 000°23'610.2
2018-Jun-15 13:27N 38°01' W 000°17'1 2.3
2018-Jun-15 12:59N 38°01' W 000°16'5 0.6
2018-Jun-15 05:25N 37°57' W 000°19'1 3.1
2018-Jun-15 04:59N 37°59' W 000°19'5 5.0
2018-Jun-15 04:02N 38°03' W 000°21'110.2
2018-Jun-15 03:55N 38°04' W 000°23'6 0.4
2018-Jun-14 13:17N 37°59' W 000°17'1 1.3
2018-Jun-14 12:52N 37°60' W 000°17'1 2.5
2018-Jun-14 12:27N 37°59' W 000°17'1 2.6
2018-Jun-14 11:59N 37°57' W 000°17'6 2.6
2018-Jun-14 09:51N 37°52' W 000°17'1 2.7
2018-Jun-14 09:20N 37°51' W 000°17'1 2.6
2018-Jun-14 08:52N 37°50' W 000°19'6 3.2
2018-Jun-14 07:04N 37°56' W 000°20'0 3.1
2018-Jun-14 07:00N 37°56' W 000°19'2 3.1
2018-Jun-14 06:25N 37°58' W 000°19'1 3.1
2018-Jun-14 06:00N 37°59' W 000°19'10 0.3
2018-Jun-12 14:25N 38°08' W 000°25'11 9.2
2018-Jun-12 13:14N 38°03' W 000°12'  

Dump ship's entire track history